Aviation Digital Data Service (ADDS)

Output produced by METARs form (1838 UTC 19 April 2019)
found at http://www.aviationweather.gov/metar/data/
 
METAR text: RJOW 191000Z 02005KT 320V050 9999 FEW005 BKN013 13/11 Q1015
Conditions at: RJOW (IWAMI , JP) observed 1000 UTC 19 April 2019
Temperature: 13.0°C (55°F)
Dewpoint: 11.0°C (52°F) [RH = 88%]
Pressure (altimeter): 29.97 inches Hg (1015.0 mb)
Winds: from the NNE (20 degrees) at 6 MPH (5 knots; 2.6 m/s)
Visibility: 6 or more miles (10+ km)
Ceiling: 1300 feet AGL
Clouds: few clouds at 500 feet AGL
broken clouds at 1300 feet AGL
Weather: no significant weather observed at this time

METAR text: RJOW 190900Z 04004KT 350V070 9999 FEW010 SCT012 BKN025 13/11 Q1014
Conditions at: RJOW (IWAMI , JP) observed 0900 UTC 19 April 2019
Temperature: 13.0°C (55°F)
Dewpoint: 11.0°C (52°F) [RH = 88%]
Pressure (altimeter): 29.94 inches Hg (1014.0 mb)
Winds: from the NE (40 degrees) at 5 MPH (4 knots; 2.1 m/s)
Visibility: 6 or more miles (10+ km)
Ceiling: 2500 feet AGL
Clouds: few clouds at 1000 feet AGL
scattered clouds at 1200 feet AGL
broken clouds at 2500 feet AGL
Weather: no significant weather observed at this time

METAR text: RJOW 190800Z 05007KT 340V090 9999 FEW010 BKN015 BKN020 13/10 Q1015
Conditions at: RJOW (IWAMI , JP) observed 0800 UTC 19 April 2019
Temperature: 13.0°C (55°F)
Dewpoint: 10.0°C (50°F) [RH = 82%]
Pressure (altimeter): 29.97 inches Hg (1015.0 mb)
Winds: from the NE (50 degrees) at 8 MPH (7 knots; 3.6 m/s)
Visibility: 6 or more miles (10+ km)
Ceiling: 1500 feet AGL
Clouds: few clouds at 1000 feet AGL
broken clouds at 1500 feet AGL
broken clouds at 2000 feet AGL
Weather: no significant weather observed at this time

METAR text: RJOW 190700Z 04007KT 340V110 9999 FEW007 BKN015 BKN020 13/10 Q1016
Conditions at: RJOW (IWAMI , JP) observed 0700 UTC 19 April 2019
Temperature: 13.0°C (55°F)
Dewpoint: 10.0°C (50°F) [RH = 82%]
Pressure (altimeter): 30.00 inches Hg (1016.0 mb)
Winds: from the NE (40 degrees) at 8 MPH (7 knots; 3.6 m/s)
Visibility: 6 or more miles (10+ km)
Ceiling: 1500 feet AGL
Clouds: few clouds at 700 feet AGL
broken clouds at 1500 feet AGL
broken clouds at 2000 feet AGL
Weather: no significant weather observed at this time

METAR text: RJOW 190600Z 03007KT 330V090 9999 FEW005 SCT007 BKN013 13/11 Q1016
Conditions at: RJOW (IWAMI , JP) observed 0600 UTC 19 April 2019
Temperature: 13.0°C (55°F)
Dewpoint: 11.0°C (52°F) [RH = 88%]
Pressure (altimeter): 30.00 inches Hg (1016.0 mb)
Winds: from the NNE (30 degrees) at 8 MPH (7 knots; 3.6 m/s)
Visibility: 6 or more miles (10+ km)
Ceiling: 1300 feet AGL
Clouds: few clouds at 500 feet AGL
scattered clouds at 700 feet AGL
broken clouds at 1300 feet AGL
Weather: no significant weather observed at this time

METAR text: RJOW 190500Z 02007KT 330V070 7000 FEW005 BKN009 13/11 Q1016
Conditions at: RJOW (IWAMI , JP) observed 0500 UTC 19 April 2019
Temperature: 13.0°C (55°F)
Dewpoint: 11.0°C (52°F) [RH = 88%]
Pressure (altimeter): 30.00 inches Hg (1016.0 mb)
Winds: from the NNE (20 degrees) at 8 MPH (7 knots; 3.6 m/s)
Visibility: 4 miles ( 7 km)
Ceiling: 900 feet AGL
Clouds: few clouds at 500 feet AGL
broken clouds at 900 feet AGL
Weather: no significant weather observed at this time

METAR text: RJOW 190400Z 04007G17KT 350V090 5000 BR FEW004 BKN007 BKN012 13/12 Q1016
Conditions at: RJOW (IWAMI , JP) observed 0400 UTC 19 April 2019
Temperature: 13.0°C (55°F)
Dewpoint: 12.0°C (54°F) [RH = 94%]
Pressure (altimeter): 30.00 inches Hg (1016.0 mb)
Winds: from the NE (40 degrees) at 8 MPH (7 knots; 3.6 m/s)
gusting to 20 MPH (17 knots; 8.7 m/s)
Visibility: 3 miles ( 5 km)
Ceiling: 700 feet AGL
Clouds: few clouds at 400 feet AGL
broken clouds at 700 feet AGL
broken clouds at 1200 feet AGL
Weather: BR  (mist)

METAR text: RJOW 190335Z 04007KT 340V080 4000 -SHRA BR FEW002 BKN007 BKN012 13/12 Q1016 RMK 1ST002 5ST007 7CU012 A3001
Conditions at: RJOW (IWAMI , JP) observed 0335 UTC 19 April 2019
Temperature: 13.0°C (55°F)
Dewpoint: 12.0°C (54°F) [RH = 94%]
Pressure (altimeter): 30.00 inches Hg (1016.0 mb)
Winds: from the NE (40 degrees) at 8 MPH (7 knots; 3.6 m/s)
Visibility: 2.49 miles (4.01 km)
Ceiling: 700 feet AGL
Clouds: few clouds at 200 feet AGL
broken clouds at 700 feet AGL
broken clouds at 1200 feet AGL
Weather: -SHRA BR  (light rain showers, mist)

METAR text: RJOW 190300Z 04006KT 350V090 3000 -SHRA BR FEW002 BKN005 BKN010 13/13 Q1016
Conditions at: RJOW (IWAMI , JP) observed 0300 UTC 19 April 2019
Temperature: 13.0°C (55°F)
Dewpoint: 13.0°C (55°F) [RH = 100%]
Pressure (altimeter): 30.00 inches Hg (1016.0 mb)
Winds: from the NE (40 degrees) at 7 MPH (6 knots; 3.1 m/s)
Visibility: 1.86 miles (2.99 km)
Ceiling: 500 feet AGL
Clouds: few clouds at 200 feet AGL
broken clouds at 500 feet AGL
broken clouds at 1000 feet AGL
Weather: -SHRA BR  (light rain showers, mist)

METAR text: RJOW 190232Z 04007KT 350V080 3000 -SHRA BR FEW002 BKN005 BKN010 13/13 Q1016 RMK 1ST002 5ST005 7CU010 A3002
Conditions at: RJOW (IWAMI , JP) observed 0232 UTC 19 April 2019
Temperature: 13.0°C (55°F)
Dewpoint: 13.0°C (55°F) [RH = 100%]
Pressure (altimeter): 30.00 inches Hg (1016.0 mb)
Winds: from the NE (40 degrees) at 8 MPH (7 knots; 3.6 m/s)
Visibility: 1.86 miles (2.99 km)
Ceiling: 500 feet AGL
Clouds: few clouds at 200 feet AGL
broken clouds at 500 feet AGL
broken clouds at 1000 feet AGL
Weather: -SHRA BR  (light rain showers, mist)

METAR text: RJOW 190200Z 03007KT 340V090 4000 -SHRA BR FEW002 BKN007 BKN012 14/13 Q1016
Conditions at: RJOW (IWAMI , JP) observed 0200 UTC 19 April 2019
Temperature: 14.0°C (57°F)
Dewpoint: 13.0°C (55°F) [RH = 94%]
Pressure (altimeter): 30.00 inches Hg (1016.0 mb)
Winds: from the NNE (30 degrees) at 8 MPH (7 knots; 3.6 m/s)
Visibility: 2.49 miles (4.01 km)
Ceiling: 700 feet AGL
Clouds: few clouds at 200 feet AGL
broken clouds at 700 feet AGL
broken clouds at 1200 feet AGL
Weather: -SHRA BR  (light rain showers, mist)

METAR text: RJOW 190100Z 04008KT 340V090 3000 -SHRA BR FEW002 BKN006 BKN012 14/13 Q1016
Conditions at: RJOW (IWAMI , JP) observed 0100 UTC 19 April 2019
Temperature: 14.0°C (57°F)
Dewpoint: 13.0°C (55°F) [RH = 94%]
Pressure (altimeter): 30.00 inches Hg (1016.0 mb)
Winds: from the NE (40 degrees) at 9 MPH (8 knots; 4.1 m/s)
Visibility: 1.86 miles (2.99 km)
Ceiling: 600 feet AGL
Clouds: few clouds at 200 feet AGL
broken clouds at 600 feet AGL
broken clouds at 1200 feet AGL
Weather: -SHRA BR  (light rain showers, mist)

METAR text: RJOW 190039Z 04006KT 340V090 4000 -SHRA BR FEW004 BKN010 BKN015 14/13 Q1016 RMK 1ST004 5CU010 7CU015 A3001
Conditions at: RJOW (IWAMI , JP) observed 0039 UTC 19 April 2019
Temperature: 14.0°C (57°F)
Dewpoint: 13.0°C (55°F) [RH = 94%]
Pressure (altimeter): 30.00 inches Hg (1016.0 mb)
Winds: from the NE (40 degrees) at 7 MPH (6 knots; 3.1 m/s)
Visibility: 2.49 miles (4.01 km)
Ceiling: 1000 feet AGL
Clouds: few clouds at 400 feet AGL
broken clouds at 1000 feet AGL
broken clouds at 1500 feet AGL
Weather: -SHRA BR  (light rain showers, mist)

METAR text: RJOW 190016Z VRB01KT 9999 -SHRA FEW008 BKN012 BKN025 14/12 Q1016 RMK 1ST008 5CU012 7CU025 A3000
Conditions at: RJOW (IWAMI , JP) observed 0016 UTC 19 April 2019
Temperature: 14.0°C (57°F)
Dewpoint: 12.0°C (54°F) [RH = 88%]
Pressure (altimeter): 30.00 inches Hg (1016.0 mb)
Winds: variable direction winds at 1 MPH (1 knots; 0.5 m/s)
Visibility: 6 or more miles (10+ km)
Ceiling: 1200 feet AGL
Clouds: few clouds at 800 feet AGL
broken clouds at 1200 feet AGL
broken clouds at 2500 feet AGL
Weather: -SHRA  (light rain showers)

METAR text: RJOW 190000Z 06003KT 020V100 9999 -SHRA SCT010 BKN015 BKN025 14/12 Q1016
Conditions at: RJOW (IWAMI , JP) observed 0000 UTC 19 April 2019
Temperature: 14.0°C (57°F)
Dewpoint: 12.0°C (54°F) [RH = 88%]
Pressure (altimeter): 30.00 inches Hg (1016.0 mb)
Winds: from the ENE (60 degrees) at 3 MPH (3 knots; 1.5 m/s)
Visibility: 6 or more miles (10+ km)
Ceiling: 1500 feet AGL
Clouds: scattered clouds at 1000 feet AGL
broken clouds at 1500 feet AGL
broken clouds at 2500 feet AGL
Weather: -SHRA  (light rain showers)

METAR text: RJOW 182300Z 18003KT 140V210 9999 -SHRA SCT015 BKN025 14/11 Q1015
Conditions at: RJOW (IWAMI , JP) observed 2300 UTC 18 April 2019
Temperature: 14.0°C (57°F)
Dewpoint: 11.0°C (52°F) [RH = 82%]
Pressure (altimeter): 29.97 inches Hg (1015.0 mb)
Winds: from the S (180 degrees) at 3 MPH (3 knots; 1.5 m/s)
Visibility: 6 or more miles (10+ km)
Ceiling: 2500 feet AGL
Clouds: scattered clouds at 1500 feet AGL
broken clouds at 2500 feet AGL
Weather: -SHRA  (light rain showers)

METAR text: RJOW 181000Z 24006KT CAVOK 18/12 Q1012
Conditions at: RJOW (IWAMI , JP) observed 1000 UTC 18 April 2019
Temperature: 18.0°C (64°F)
Dewpoint: 12.0°C (54°F) [RH = 68%]
Pressure (altimeter): 29.88 inches Hg (1012.0 mb)
Winds: from the WSW (240 degrees) at 7 MPH (6 knots; 3.1 m/s)
Visibility: 6 or more miles (10+ km)
Ceiling: ceiling and visibility are OK
Clouds: unknown
Weather: no significant weather observed at this time

METAR text: RJOW 180900Z 27014KT 9999 FEW045 19/12 Q1011
Conditions at: RJOW (IWAMI , JP) observed 0900 UTC 18 April 2019
Temperature: 19.0°C (66°F)
Dewpoint: 12.0°C (54°F) [RH = 64%]
Pressure (altimeter): 29.85 inches Hg (1011.0 mb)
Winds: from the W (270 degrees) at 16 MPH (14 knots; 7.2 m/s)
Visibility: 6 or more miles (10+ km)
Ceiling: at least 12,000 feet AGL
Clouds: few clouds at 4500 feet AGL
Weather: no significant weather observed at this time

METAR text: RJOW 180800Z 27015KT 9999 FEW040 20/12 Q1011
Conditions at: RJOW (IWAMI , JP) observed 0800 UTC 18 April 2019
Temperature: 20.0°C (68°F)
Dewpoint: 12.0°C (54°F) [RH = 60%]
Pressure (altimeter): 29.85 inches Hg (1011.0 mb)
Winds: from the W (270 degrees) at 17 MPH (15 knots; 7.7 m/s)
Visibility: 6 or more miles (10+ km)
Ceiling: at least 12,000 feet AGL
Clouds: few clouds at 4000 feet AGL
Weather: no significant weather observed at this time

METAR text: RJOW 180700Z 28017KT 9999 FEW040 21/11 Q1011
Conditions at: RJOW (IWAMI , JP) observed 0700 UTC 18 April 2019
Temperature: 21.0°C (70°F)
Dewpoint: 11.0°C (52°F) [RH = 53%]
Pressure (altimeter): 29.85 inches Hg (1011.0 mb)
Winds: from the W (280 degrees) at 20 MPH (17 knots; 8.7 m/s)
Visibility: 6 or more miles (10+ km)
Ceiling: at least 12,000 feet AGL
Clouds: few clouds at 4000 feet AGL
Weather: no significant weather observed at this time